createdAt,value
2018-03-17T00:00:46.804Z,6.23
2018-03-17T00:03:15.810Z,6.70
2018-03-17T00:05:44.077Z,6.27
2018-03-17T00:08:13.100Z,6.03
2018-03-17T00:10:41.356Z,6.03
2018-03-17T00:13:10.396Z,7.03
2018-03-17T00:15:38.641Z,6.20
2018-03-17T00:18:07.651Z,6.00
2018-03-17T00:20:36.202Z,6.25
2018-03-17T00:23:04.442Z,5.80
2018-03-17T00:25:32.703Z,6.15
2018-03-17T00:28:00.981Z,6.90
2018-03-17T00:30:29.248Z,6.93
2018-03-17T00:32:58.268Z,6.43
2018-03-17T00:35:26.525Z,6.37
2018-03-17T00:37:55.539Z,6.78
2018-03-17T00:40:23.804Z,6.30
2018-03-17T00:42:52.820Z,6.60
2018-03-17T00:45:21.086Z,6.70
2018-03-17T00:47:49.336Z,6.57
2018-03-17T00:50:17.593Z,6.30
2018-03-17T00:52:45.852Z,6.97
2018-03-17T00:55:14.112Z,6.40
2018-03-17T00:57:42.388Z,6.47
2018-03-17T01:00:11.405Z,6.33
2018-03-17T01:02:39.653Z,6.40
2018-03-17T01:05:08.680Z,6.10
2018-03-17T01:07:36.939Z,6.00
2018-03-17T01:10:05.218Z,6.30
2018-03-17T01:12:34.148Z,5.50
2018-03-17T01:15:02.406Z,5.97
2018-03-17T01:17:30.666Z,5.47
2018-03-17T01:19:59.686Z,5.10
2018-03-17T01:22:27.941Z,5.30
2018-03-17T01:24:56.961Z,5.60
2018-03-17T01:27:25.961Z,5.20
2018-03-17T01:29:54.229Z,5.53
2018-03-17T01:32:23.242Z,5.50
2018-03-17T01:34:51.488Z,5.53
2018-03-17T01:37:19.752Z,5.90
2018-03-17T01:39:48.018Z,5.95
2018-03-17T01:42:16.288Z,5.60
2018-03-17T01:44:44.549Z,5.93
2018-03-17T01:47:12.806Z,6.33
2018-03-17T01:49:41.828Z,6.23
2018-03-17T01:52:10.103Z,6.07
2018-03-17T01:54:38.359Z,5.93
2018-03-17T01:57:07.382Z,5.60
2018-03-17T01:59:35.636Z,5.87
2018-03-17T02:02:04.675Z,5.83
2018-03-17T02:04:32.915Z,5.90
2018-03-17T02:07:01.930Z,5.50
2018-03-17T02:09:30.190Z,5.20
2018-03-17T02:11:59.213Z,5.60
2018-03-17T02:14:28.228Z,5.37
2018-03-17T02:16:56.480Z,5.40
2018-03-17T02:19:25.512Z,5.80
2018-03-17T02:21:53.768Z,5.77
2018-03-17T02:24:22.020Z,5.62
2018-03-17T02:26:51.045Z,5.07
2018-03-17T02:29:19.285Z,5.50
2018-03-17T02:31:47.533Z,5.30
2018-03-17T02:34:15.794Z,5.60
2018-03-17T02:36:44.045Z,5.60
2018-03-17T02:39:13.046Z,5.90
2018-03-17T02:41:42.065Z,5.07
2018-03-17T02:44:10.339Z,5.55
2018-03-17T02:46:38.582Z,5.33
2018-03-17T02:49:06.824Z,5.57
2018-03-17T02:51:35.093Z,5.47
2018-03-17T02:54:03.338Z,5.80
2018-03-17T02:56:32.340Z,5.20
2018-03-17T02:59:01.364Z,5.60
2018-03-17T03:01:29.631Z,5.43
2018-03-17T03:03:57.905Z,4.90
2018-03-17T03:06:26.150Z,5.50
2018-03-17T03:08:54.406Z,5.53
2018-03-17T03:11:22.653Z,5.20
2018-03-17T03:13:50.896Z,5.90
2018-03-17T03:16:19.151Z,5.33
2018-03-17T03:18:47.401Z,4.70
2018-03-17T03:21:15.688Z,5.60
2018-03-17T03:23:43.934Z,5.97
2018-03-17T03:26:12.940Z,4.50
2018-03-17T03:28:41.960Z,5.17
2018-03-17T03:31:10.208Z,5.83
2018-03-17T03:33:39.236Z,6.20
2018-03-17T03:36:07.492Z,6.12
2018-03-17T03:38:36.369Z,6.10
2018-03-17T03:41:04.620Z,5.50
2018-03-17T03:43:32.867Z,5.45
2018-03-17T03:46:01.112Z,5.27
2018-03-17T03:48:30.131Z,5.07
2018-03-17T03:50:59.166Z,5.10
2018-03-17T03:53:27.397Z,4.93
2018-03-17T03:55:56.407Z,4.70
2018-03-17T03:58:24.659Z,5.03
2018-03-17T04:00:52.905Z,6.20
2018-03-17T04:03:21.155Z,6.50
2018-03-17T04:05:49.431Z,6.37
2018-03-17T04:08:17.668Z,6.50
2018-03-17T04:10:45.916Z,7.03
2018-03-17T04:13:14.176Z,6.60
2018-03-17T04:15:42.416Z,6.82
2018-03-17T04:18:10.676Z,5.57
2018-03-17T04:20:38.937Z,6.07
2018-03-17T04:23:07.188Z,5.77
2018-03-17T04:25:35.444Z,5.90
2018-03-17T04:28:03.711Z,6.77
2018-03-17T04:30:32.535Z,6.40
2018-03-17T04:33:01.554Z,6.27
2018-03-17T04:35:29.815Z,6.03
2018-03-17T04:37:58.854Z,6.43
2018-03-17T04:40:27.096Z,6.30
2018-03-17T04:42:55.356Z,6.50
2018-03-17T04:45:24.380Z,6.97
2018-03-17T04:47:52.635Z,6.67
2018-03-17T04:50:21.650Z,5.80
2018-03-17T04:52:50.684Z,6.40
2018-03-17T04:55:18.927Z,6.33
2018-03-17T04:57:47.173Z,5.72
2018-03-17T05:00:15.643Z,5.73
2018-03-17T05:02:45.142Z,6.93
2018-03-17T05:05:13.389Z,7.70
2018-03-17T05:07:41.652Z,8.40
2018-03-17T05:10:10.688Z,7.53
2018-03-17T05:12:38.933Z,6.53
2018-03-17T05:15:07.949Z,7.47
2018-03-17T05:17:36.218Z,6.70
2018-03-17T05:20:05.235Z,7.37
2018-03-17T05:22:33.492Z,7.30
2018-03-17T05:25:02.511Z,6.90
2018-03-17T05:27:30.784Z,7.03
2018-03-17T05:29:59.055Z,7.20
2018-03-17T05:32:27.312Z,5.97
2018-03-17T05:34:55.584Z,6.30
2018-03-17T05:37:23.845Z,5.60
2018-03-17T05:39:52.101Z,5.97
2018-03-17T05:42:20.352Z,6.07
2018-03-17T05:44:49.381Z,6.23
2018-03-17T05:47:18.005Z,6.50
2018-03-17T05:49:46.257Z,6.07
2018-03-17T05:52:14.507Z,5.62
2018-03-17T05:54:43.517Z,5.70
2018-03-17T05:57:11.772Z,5.43
2018-03-17T05:59:40.788Z,5.33
2018-03-17T06:02:09.032Z,5.30
2018-03-17T06:04:37.288Z,6.87
2018-03-17T06:07:05.537Z,6.55
2018-03-17T06:09:33.800Z,6.10
2018-03-17T06:12:02.069Z,6.03
2018-03-17T06:14:31.093Z,6.37
2018-03-17T06:16:59.340Z,6.57
2018-03-17T06:19:28.370Z,6.75
2018-03-17T06:21:56.615Z,8.40
2018-03-17T06:24:25.681Z,8.87
2018-03-17T06:26:53.927Z,9.67
2018-03-17T06:29:22.173Z,9.43
2018-03-17T06:31:51.664Z,8.87
2018-03-17T06:34:19.927Z,9.68
2018-03-17T06:36:49.196Z,7.78
2018-03-17T06:39:17.699Z,7.10
2018-03-17T06:41:45.935Z,6.80
2018-03-17T06:44:14.944Z,6.82
2018-03-17T06:46:43.964Z,6.57
2018-03-17T06:49:12.220Z,6.40
2018-03-17T06:51:41.223Z,6.77
2018-03-17T06:54:09.693Z,6.30
2018-03-17T06:56:38.700Z,6.53
2018-03-17T06:59:07.712Z,6.40
2018-03-17T07:01:35.980Z,7.30
2018-03-17T07:04:04.990Z,6.68
2018-03-17T07:06:33.234Z,8.77
2018-03-17T07:09:01.504Z,6.67
2018-03-17T07:11:29.749Z,6.43
2018-03-17T07:13:58.005Z,6.07
2018-03-17T07:16:26.281Z,6.18
2018-03-17T07:18:55.301Z,6.00
2018-03-17T07:21:23.545Z,6.30
2018-03-17T07:23:53.105Z,7.62
2018-03-17T07:26:21.357Z,9.07
2018-03-17T07:28:49.624Z,8.63
2018-03-17T07:31:18.642Z,7.43
2018-03-17T07:33:46.899Z,7.57
2018-03-17T07:36:15.924Z,7.10
2018-03-17T07:38:44.167Z,6.40
2018-03-17T07:41:13.182Z,7.07
2018-03-17T07:43:42.205Z,6.90
2018-03-17T07:46:10.456Z,7.70
2018-03-17T07:48:39.581Z,7.20
2018-03-17T07:51:08.617Z,7.10
2018-03-17T07:53:36.849Z,7.37
2018-03-17T07:56:05.099Z,7.25
2018-03-17T07:58:34.116Z,7.57
2018-03-17T08:01:02.360Z,7.33
2018-03-17T08:03:30.624Z,7.30
2018-03-17T08:05:58.880Z,7.77
2018-03-17T08:08:27.136Z,7.00
2018-03-17T08:10:56.169Z,6.80
2018-03-17T08:13:24.413Z,7.03
2018-03-17T08:15:53.913Z,6.97
2018-03-17T08:18:22.936Z,7.15
2018-03-17T08:20:51.192Z,7.60
2018-03-17T08:23:20.341Z,8.83
2018-03-17T08:25:48.599Z,9.23
2018-03-17T08:28:16.846Z,9.37
2018-03-17T08:30:45.876Z,10.30
2018-03-17T08:33:14.124Z,9.27
2018-03-17T08:35:43.160Z,9.80
2018-03-17T08:38:11.433Z,10.30
2018-03-17T08:40:39.688Z,9.00
2018-03-17T08:43:08.732Z,10.73
2018-03-17T08:45:36.988Z,9.63
2018-03-17T08:48:05.235Z,9.70
2018-03-17T08:50:34.278Z,10.25
2018-03-17T08:53:02.554Z,9.03
2018-03-17T08:55:30.816Z,9.50
2018-03-17T08:57:59.117Z,9.63
2018-03-17T09:00:28.151Z,8.93
2018-03-17T09:02:56.472Z,8.90
2018-03-17T09:05:26.732Z,8.77
2018-03-17T09:07:54.985Z,8.70
2018-03-17T09:10:23.252Z,9.30
2018-03-17T09:12:52.277Z,9.70
2018-03-17T09:15:20.540Z,8.93
2018-03-17T09:17:49.583Z,8.63
2018-03-17T09:20:17.920Z,8.87
2018-03-17T09:22:46.173Z,9.33
2018-03-17T09:25:15.204Z,9.73
2018-03-17T09:27:43.477Z,9.70
2018-03-17T09:30:12.492Z,11.57
2018-03-17T09:32:40.756Z,12.90
2018-03-17T09:35:09.784Z,12.23
2018-03-17T09:37:38.036Z,13.13
2018-03-17T09:40:06.292Z,13.73
2018-03-17T09:42:34.587Z,13.62
2018-03-17T09:45:03.610Z,13.63
2018-03-17T09:47:31.848Z,14.70
2018-03-17T09:50:00.112Z,14.75
2018-03-17T09:52:28.371Z,16.80
2018-03-17T09:54:56.612Z,17.57
2018-03-17T09:57:24.873Z,17.47
2018-03-17T09:59:53.124Z,17.30
2018-03-17T10:02:21.390Z,19.10
2018-03-17T10:04:49.685Z,19.52
2018-03-17T10:07:18.612Z,18.23
2018-03-17T10:09:47.646Z,19.03
2018-03-17T10:12:15.908Z,16.07
2018-03-17T10:14:44.945Z,16.57
2018-03-17T10:17:13.969Z,16.40
2018-03-17T10:19:42.236Z,18.57
2018-03-17T10:22:10.484Z,19.57
2018-03-17T10:24:38.748Z,19.67
2018-03-17T10:27:07.008Z,19.00
2018-03-17T10:29:35.286Z,18.87
2018-03-17T10:32:03.522Z,19.63
2018-03-17T10:34:31.772Z,19.15
2018-03-17T10:37:00.032Z,18.00
2018-03-17T10:39:29.058Z,17.83
2018-03-17T10:42:00.256Z,19.77
2018-03-17T10:44:28.513Z,20.10
2018-03-17T10:46:56.760Z,19.93
2018-03-17T10:49:25.012Z,19.53
2018-03-17T10:51:53.276Z,18.73
2018-03-17T10:54:22.164Z,17.87
2018-03-17T10:56:50.424Z,18.00
2018-03-17T10:59:18.685Z,18.60
2018-03-17T11:01:46.934Z,19.33
2018-03-17T11:04:15.944Z,20.67
2018-03-17T11:06:44.969Z,22.00
2018-03-17T11:09:14.049Z,21.80
2018-03-17T11:11:42.312Z,19.80
2018-03-17T11:14:11.340Z,19.43
2018-03-17T11:16:39.673Z,21.83
2018-03-17T11:19:07.932Z,19.47
2018-03-17T11:21:37.503Z,21.05
2018-03-17T11:24:05.768Z,20.23
2018-03-17T11:26:34.786Z,20.98
2018-03-17T11:29:03.050Z,22.13
2018-03-17T11:31:32.067Z,21.77
2018-03-17T11:34:00.365Z,22.73
2018-03-17T11:36:28.630Z,22.80
2018-03-17T11:38:56.888Z,19.50
2018-03-17T11:41:25.916Z,15.87
2018-03-17T11:43:54.172Z,14.00
2018-03-17T11:46:22.440Z,14.73
2018-03-17T11:48:51.456Z,14.87
2018-03-17T11:51:19.960Z,15.57
2018-03-17T11:53:48.956Z,13.30
2018-03-17T11:56:17.255Z,14.67
2018-03-17T11:58:45.476Z,16.58
2018-03-17T12:01:14.523Z,15.53
2018-03-17T12:03:42.769Z,15.53
2018-03-17T12:06:11.021Z,16.23
2018-03-17T12:08:39.292Z,17.90
2018-03-17T12:11:07.544Z,16.10
2018-03-17T12:13:35.788Z,18.47
2018-03-17T12:16:04.808Z,18.20
2018-03-17T12:18:33.060Z,18.20
2018-03-17T12:21:02.080Z,21.67
2018-03-17T12:23:30.346Z,22.13
2018-03-17T12:25:58.649Z,20.93
2018-03-17T12:28:26.916Z,21.07
2018-03-17T12:30:55.928Z,20.43
2018-03-17T12:33:24.194Z,20.92
2018-03-17T12:35:52.444Z,23.27
2018-03-17T12:38:20.679Z,22.70
2018-03-17T12:40:48.933Z,23.43
2018-03-17T12:43:17.194Z,24.17
2018-03-17T12:45:46.208Z,24.60
2018-03-17T12:48:14.476Z,21.80
2018-03-17T12:50:43.490Z,21.87
2018-03-17T12:53:11.756Z,20.83
2018-03-17T12:55:40.774Z,20.57
2018-03-17T12:58:09.016Z,21.42
2018-03-17T13:00:38.053Z,21.37
2018-03-17T13:03:06.292Z,18.53
2018-03-17T13:05:34.552Z,20.10
2018-03-17T13:08:02.832Z,16.70
2018-03-17T13:10:31.076Z,16.63
2018-03-17T13:12:59.339Z,15.05
2018-03-17T13:15:27.601Z,14.53
2018-03-17T13:17:56.612Z,13.30
2018-03-17T13:20:24.874Z,13.57
2018-03-17T13:23:10.648Z,13.63
2018-03-17T13:25:38.907Z,13.63
2018-03-17T13:28:29.581Z,17.45
2018-03-17T13:30:57.845Z,15.13
2018-03-17T13:33:26.100Z,10.43
2018-03-17T13:36:12.714Z,15.80
2018-03-17T13:38:40.965Z,15.77
2018-03-17T13:41:09.199Z,15.00
2018-03-17T13:43:37.454Z,12.93
2018-03-17T13:46:05.697Z,13.47
2018-03-17T13:48:34.055Z,13.83
2018-03-17T13:51:02.297Z,12.57
2018-03-17T13:53:30.540Z,13.90
2018-03-17T13:55:58.808Z,15.07
2018-03-17T13:58:27.066Z,13.47
2018-03-17T14:00:55.317Z,16.80
2018-03-17T14:03:23.579Z,15.87
2018-03-17T14:05:52.605Z,15.17
2018-03-17T14:08:20.854Z,15.70
2018-03-17T14:10:49.880Z,15.40
2018-03-17T14:13:18.132Z,17.13
2018-03-17T14:15:47.156Z,14.77
2018-03-17T14:18:15.394Z,15.10
2018-03-17T14:20:44.535Z,15.32
2018-03-17T14:23:12.792Z,15.67
2018-03-17T14:25:41.808Z,16.37
2018-03-17T14:28:10.070Z,15.77
2018-03-17T14:30:39.074Z,17.27
2018-03-17T14:33:08.113Z,17.07
2018-03-17T14:35:36.348Z,20.27
2018-03-17T14:38:05.369Z,18.50
2018-03-17T14:40:33.622Z,18.65
2018-03-17T14:43:02.645Z,17.30
2018-03-17T14:45:30.898Z,19.83
2018-03-17T14:47:59.933Z,18.62
2018-03-17T14:50:28.284Z,20.43
2018-03-17T14:52:57.292Z,18.53
2018-03-17T14:55:25.548Z,18.63
2018-03-17T14:57:54.564Z,17.53
2018-03-17T15:00:22.889Z,16.50
2018-03-17T15:02:51.839Z,17.00
2018-03-17T15:05:20.859Z,17.00
2018-03-17T15:07:49.121Z,17.03
2018-03-17T15:10:17.376Z,19.07
2018-03-17T15:12:45.629Z,18.37
2018-03-17T15:15:13.884Z,20.30
2018-03-17T15:17:42.135Z,17.90
2018-03-17T15:20:11.159Z,18.77
2018-03-17T15:22:39.408Z,18.77
2018-03-17T15:25:08.425Z,19.03
2018-03-17T15:27:36.688Z,21.13
2018-03-17T15:30:05.704Z,19.55
2018-03-17T15:32:33.956Z,20.30
2018-03-17T15:35:02.989Z,20.63
2018-03-17T15:37:31.232Z,21.07
2018-03-17T15:40:00.255Z,22.42
2018-03-17T15:42:28.521Z,21.83
2018-03-17T15:44:58.778Z,21.70
2018-03-17T15:47:27.032Z,21.57
2018-03-17T15:49:56.049Z,22.30
2018-03-17T15:52:24.302Z,23.73
2018-03-17T15:54:53.330Z,24.63
2018-03-17T15:57:21.576Z,22.80
2018-03-17T15:59:50.605Z,24.37
2018-03-17T16:02:18.845Z,24.33
2018-03-17T16:04:47.093Z,22.17
2018-03-17T16:07:15.344Z,25.63
2018-03-17T16:09:43.600Z,26.00
2018-03-17T16:12:12.622Z,24.77
2018-03-17T16:14:40.883Z,21.93
2018-03-17T16:17:09.894Z,26.67
2018-03-17T16:19:38.160Z,28.10
2018-03-17T16:22:07.168Z,27.83
2018-03-17T16:24:35.421Z,26.37
2018-03-17T16:27:04.328Z,26.67
2018-03-17T16:29:33.342Z,28.17
2018-03-17T16:32:01.589Z,31.30
2018-03-17T16:34:29.853Z,28.02
2018-03-17T16:36:58.093Z,27.87
2018-03-17T16:39:26.366Z,32.93
2018-03-17T16:41:54.608Z,29.83
2018-03-17T16:44:22.856Z,29.63
2018-03-17T16:46:51.131Z,22.93
2018-03-17T16:49:19.392Z,30.57
2018-03-17T16:51:47.691Z,29.53
2018-03-17T16:54:16.664Z,30.27
2018-03-17T16:56:44.908Z,30.53
2018-03-17T16:59:13.165Z,33.17
2018-03-17T17:01:41.412Z,35.40
2018-03-17T17:04:09.672Z,31.43
2018-03-17T17:06:38.686Z,31.07
2018-03-17T17:09:06.932Z,27.93
2018-03-17T17:11:35.184Z,29.17
2018-03-17T17:14:04.681Z,29.85
2018-03-17T17:16:32.948Z,29.55
2018-03-17T17:19:02.452Z,30.25
2018-03-17T17:21:30.712Z,31.70
2018-03-17T17:23:59.717Z,32.30
2018-03-17T17:26:27.985Z,34.70
2018-03-17T17:28:57.015Z,37.13
2018-03-17T17:31:25.266Z,30.90
2018-03-17T17:33:53.520Z,34.60
2018-03-17T17:36:21.772Z,36.43
2018-03-17T17:38:50.033Z,37.23
2018-03-17T17:41:18.292Z,38.57
2018-03-17T17:43:46.540Z,39.77
2018-03-17T17:46:14.800Z,33.60
2018-03-17T17:48:43.053Z,34.30
2018-03-17T17:51:11.319Z,36.50
2018-03-17T17:53:39.589Z,41.13
2018-03-17T17:56:07.838Z,35.50
2018-03-17T17:58:36.083Z,38.30
2018-03-17T18:01:04.344Z,37.03
2018-03-17T18:03:32.580Z,36.80
2018-03-17T18:06:00.848Z,40.75
2018-03-17T18:08:29.098Z,40.70
2018-03-17T18:10:57.369Z,36.65
2018-03-17T18:13:25.625Z,36.97
2018-03-17T18:15:54.638Z,35.50
2018-03-17T18:18:22.880Z,37.75
2018-03-17T18:20:51.147Z,33.73
2018-03-17T18:23:19.393Z,38.03
2018-03-17T18:25:47.645Z,35.03
2018-03-17T18:28:15.917Z,36.80
2018-03-17T18:30:46.163Z,37.13
2018-03-17T18:33:14.426Z,35.90
2018-03-17T18:35:43.488Z,38.90
2018-03-17T18:38:11.732Z,35.77
2018-03-17T18:40:39.996Z,33.60
2018-03-17T18:43:08.252Z,35.53
2018-03-17T18:45:36.492Z,33.53
2018-03-17T18:48:04.759Z,34.77
2018-03-17T18:50:33.016Z,35.97
2018-03-17T18:53:01.262Z,34.97
2018-03-17T18:55:29.512Z,34.20
2018-03-17T18:57:57.756Z,37.53
2018-03-17T19:00:26.028Z,32.40
2018-03-17T19:02:55.042Z,38.20
2018-03-17T19:05:23.344Z,36.57
2018-03-17T19:07:51.621Z,35.43
2018-03-17T19:10:19.929Z,34.93
2018-03-17T19:12:48.200Z,34.90
2018-03-17T19:15:16.450Z,35.37
2018-03-17T19:17:44.713Z,37.57
2018-03-17T19:20:13.728Z,32.83
2018-03-17T19:22:41.969Z,32.83
2018-03-17T19:25:10.258Z,35.20
2018-03-17T19:27:39.283Z,36.23
2018-03-17T19:30:07.535Z,32.10
2018-03-17T19:32:36.609Z,36.70
2018-03-17T19:35:04.824Z,34.20
2018-03-17T19:37:33.883Z,36.17
2018-03-17T19:40:02.161Z,35.27
2018-03-17T19:42:30.436Z,32.57
2018-03-17T19:44:58.692Z,33.97
2018-03-17T19:47:26.953Z,34.97
2018-03-17T19:49:55.238Z,33.07
2018-03-17T19:52:23.491Z,31.62
2018-03-17T19:54:52.523Z,33.33
2018-03-17T19:57:20.817Z,31.10
2018-03-17T19:59:49.085Z,32.03
2018-03-17T20:02:17.323Z,30.60
2018-03-17T20:04:45.635Z,30.47
2018-03-17T20:07:14.668Z,31.17
2018-03-17T20:09:42.928Z,30.47
2018-03-17T20:12:11.202Z,31.70
2018-03-17T20:14:39.460Z,28.43
2018-03-17T20:17:08.479Z,30.13
2018-03-17T20:19:36.719Z,30.97
2018-03-17T20:22:04.976Z,30.07
2018-03-17T20:24:33.218Z,33.40
2018-03-17T20:27:01.468Z,27.53
2018-03-17T20:29:29.741Z,30.67
2018-03-17T20:31:57.988Z,29.77
2018-03-17T20:34:26.227Z,29.50
2018-03-17T20:36:54.484Z,29.13
2018-03-17T20:39:22.728Z,25.27
2018-03-17T20:41:50.987Z,24.40
2018-03-17T20:44:19.248Z,26.83
2018-03-17T20:46:47.508Z,29.67
2018-03-17T20:49:15.760Z,27.33
2018-03-17T20:51:44.021Z,27.50
2018-03-17T20:54:12.282Z,28.97
2018-03-17T20:56:40.552Z,26.73
2018-03-17T20:59:08.804Z,28.35
2018-03-17T21:01:37.061Z,29.70
2018-03-17T21:04:05.325Z,29.77
2018-03-17T21:06:33.577Z,28.33
2018-03-17T21:09:01.824Z,30.53
2018-03-17T21:11:30.073Z,27.83
2018-03-17T21:13:58.330Z,31.73
2018-03-17T21:16:26.571Z,30.85
2018-03-17T21:18:55.602Z,28.67
2018-03-17T21:21:23.860Z,29.33
2018-03-17T21:23:52.886Z,30.60
2018-03-17T21:26:21.148Z,26.92
2018-03-17T21:28:50.160Z,28.10
2018-03-17T21:31:18.415Z,28.73
2018-03-17T21:33:47.422Z,33.70
2018-03-17T21:36:16.494Z,29.96
2018-03-17T21:38:44.742Z,32.30
2018-03-17T21:41:12.988Z,30.50
2018-03-17T21:43:41.256Z,23.97
2018-03-17T21:46:10.080Z,29.70
2018-03-17T21:48:38.332Z,29.67
2018-03-17T21:51:07.353Z,26.07
2018-03-17T21:53:35.593Z,30.57
2018-03-17T21:56:04.633Z,27.03
2018-03-17T21:58:32.888Z,28.83
2018-03-17T22:01:01.914Z,28.70
2018-03-17T22:03:30.187Z,28.60
2018-03-17T22:05:58.438Z,21.25
2018-03-17T22:08:28.864Z,29.97
2018-03-17T22:10:57.876Z,26.10
2018-03-17T22:13:26.893Z,30.97
2018-03-17T22:15:55.156Z,29.97
2018-03-17T22:18:23.408Z,29.33
2018-03-17T22:20:51.664Z,30.97
2018-03-17T22:23:19.933Z,19.90
2018-03-17T22:25:48.195Z,30.40
2018-03-17T22:28:16.447Z,28.02
2018-03-17T22:30:45.472Z,30.80
2018-03-17T22:33:13.722Z,29.63
2018-03-17T22:35:42.749Z,28.75
2018-03-17T22:38:11.123Z,31.60
2018-03-17T22:40:39.387Z,29.80
2018-03-17T22:43:07.665Z,29.30
2018-03-17T22:45:36.772Z,29.53
2018-03-17T22:48:05.811Z,27.77
2018-03-17T22:50:34.079Z,28.07
2018-03-17T22:53:02.330Z,27.43
2018-03-17T22:55:31.344Z,30.40
2018-03-17T22:57:59.614Z,28.07
2018-03-17T23:00:27.862Z,25.47
2018-03-17T23:02:56.133Z,29.10
2018-03-17T23:05:24.456Z,29.53
2018-03-17T23:07:52.708Z,29.40
2018-03-17T23:10:20.972Z,31.43
2018-03-17T23:12:50.742Z,32.43
2018-03-17T23:15:19.060Z,27.17
2018-03-17T23:17:47.278Z,26.90
2018-03-17T23:20:16.302Z,28.60
2018-03-17T23:22:44.564Z,28.53
2018-03-17T23:25:12.819Z,28.08
2018-03-17T23:27:41.068Z,26.80
2018-03-17T23:30:09.325Z,26.77
2018-03-17T23:32:37.586Z,28.33
2018-03-17T23:35:06.612Z,27.07
2018-03-17T23:37:34.876Z,29.83
2018-03-17T23:40:03.131Z,27.23
2018-03-17T23:42:32.144Z,27.77
2018-03-17T23:45:00.407Z,29.27
2018-03-17T23:47:28.676Z,29.33
2018-03-17T23:49:56.964Z,28.55
2018-03-17T23:52:26.812Z,29.24
2018-03-17T23:54:55.081Z,29.60
2018-03-17T23:57:24.097Z,29.10
2018-03-17T23:59:52.369Z,30.83
